Time;durP1;ratioP1;P1;durP2;ratioP2;P2;SDS_P1;SDS_P2;PMS_P1;PMS_P2;Temp;Humidity;BMP_temperature;BMP_pressure;BME280_temperature;BME280_humidity;BME280_pressure;Samples;Min_cycle;Max_cycle;Signal;HPM_P1;HPM_P2
2023/02/09 00:00:14;;;;;;;19.15;8.75;;;;;;;-1.29;67.55;102975.94;4994378;28;20038;-77
2023/02/09 00:02:41;;;;;;;23.10;8.55;;;;;;;-1.36;67.99;102970.09;4992179;28;20038;-79
2023/02/09 00:05:08;;;;;;;22.33;9.15;;;;;;;-1.38;68.08;102976.91;5005361;28;20391;-80
2023/02/09 00:07:35;;;;;;;21.52;8.85;;;;;;;-1.43;67.81;102982.09;4989462;28;20107;-78
2023/02/09 00:10:00;;;;;;;20.92;8.95;;;;;;;-1.47;67.96;102977.91;4992498;28;20045;-79
2023/02/09 00:15:10;;;;;;;25.98;9.32;;;;;;;-1.46;67.63;102968.56;4985876;28;20045;-77
2023/02/09 00:17:36;;;;;;;23.45;9.65;;;;;;;-1.50;67.77;102964.41;5004244;28;20115;-79
2023/02/09 00:20:04;;;;;;;22.60;9.55;;;;;;;-1.52;67.77;102969.50;4993793;28;20026;-78
2023/02/09 00:22:30;;;;;;;25.42;9.32;;;;;;;-1.34;67.57;102963.25;4994976;28;20403;-78
2023/02/09 00:24:56;;;;;;;22.75;9.77;;;;;;;-1.39;67.69;102965.91;4974557;28;20091;-79
2023/02/09 00:27:21;;;;;;;24.10;9.40;;;;;;;-1.46;67.44;102971.94;4988427;28;20479;-78
2023/02/09 00:29:46;;;;;;;21.40;9.30;;;;;;;-1.51;68.29;102971.19;5007344;28;20816;-78
2023/02/09 00:32:15;;;;;;;20.95;9.15;;;;;;;-1.63;68.59;102956.94;4978656;28;20046;-77
2023/02/09 00:34:41;;;;;;;22.42;9.32;;;;;;;-1.55;68.28;102968.72;4972780;28;20735;-79
2023/02/09 00:37:06;;;;;;;27.77;9.90;;;;;;;-1.54;68.35;102966.16;4993108;28;20054;-79
2023/02/09 00:39:32;;;;;;;18.13;8.70;;;;;;;-1.59;68.81;102967.94;4988369;28;20041;-78
2023/02/09 00:42:06;;;;;;;21.83;9.15;;;;;;;-1.71;69.23;102968.09;4971652;28;20049;-79
2023/02/09 00:44:37;;;;;;;21.45;9.10;;;;;;;-1.69;69.34;102968.94;4989244;28;20505;-78
2023/02/09 00:47:03;;;;;;;21.95;9.82;;;;;;;-1.62;69.34;102966.28;5008852;28;20033;-79
2023/02/09 00:49:30;;;;;;;19.90;8.55;;;;;;;-1.72;69.29;102972.34;4992890;28;20038;-78
2023/02/09 00:51:56;;;;;;;23.27;8.70;;;;;;;-1.78;69.95;102975.00;4976247;28;20049;-78
2023/02/09 00:54:21;;;;;;;24.15;9.52;;;;;;;-1.85;69.95;102978.50;4992461;28;20036;-77
2023/02/09 00:56:48;;;;;;;22.88;9.63;;;;;;;-2.01;70.75;102972.81;4992798;28;20045;-78
2023/02/09 00:59:14;;;;;;;26.20;9.95;;;;;;;-2.10;71.58;102978.84;5005391;28;20036;-79
2023/02/09 01:01:40;;;;;;;22.15;8.88;;;;;;;-2.16;71.93;102967.06;4973573;28;20402;-78
2023/02/09 01:04:07;;;;;;;24.95;10.05;;;;;;;-2.25;72.69;102972.25;4992472;28;20026;-80
2023/02/09 01:06:32;;;;;;;26.67;9.05;;;;;;;-2.33;72.98;102978.31;4979574;28;20037;-77
2023/02/09 01:08:58;;;;;;;19.48;10.15;;;;;;;-2.43;73.67;102980.97;4992155;28;20033;-77
2023/02/09 01:11:26;;;;;;;23.80;9.90;;;;;;;-2.47;74.25;102986.09;4975372;28;20041;-77
2023/02/09 01:13:54;;;;;;;22.05;9.73;;;;;;;-2.41;74.46;102986.00;4989531;28;20030;-79
2023/02/09 01:16:20;;;;;;;22.60;9.68;;;;;;;-2.43;73.58;102980.09;5002939;28;20042;-78
2023/02/09 01:18:45;;;;;;;22.20;9.05;;;;;;;-2.49;73.66;102973.41;4997363;28;20041;-78
2023/02/09 01:21:13;;;;;;;21.02;8.80;;;;;;;-2.46;73.74;102980.16;4990801;28;20436;-78
2023/02/09 01:23:39;;;;;;;21.67;8.85;;;;;;;-2.47;74.01;102989.47;4975584;28;20088;-78
2023/02/09 01:26:06;;;;;;;23.40;10.27;;;;;;;-2.41;74.03;102971.63;4991118;28;20046;-77
2023/02/09 01:28:33;;;;;;;25.55;8.95;;;;;;;-2.49;74.11;102972.56;4974257;28;20101;-78
2023/02/09 01:31:01;;;;;;;23.77;8.90;;;;;;;-2.56;74.21;102967.56;4990337;28;20030;-77
2023/02/09 01:33:28;;;;;;;22.23;9.50;;;;;;;-2.63;74.65;102960.88;4999086;28;20056;-81
2023/02/09 01:36:01;;;;;;;23.70;10.10;;;;;;;-2.60;74.66;102962.53;4989186;28;20034;-77
2023/02/09 01:38:27;;;;;;;24.02;9.55;;;;;;;-2.68;74.85;102975.31;5029308;28;20472;-77
2023/02/09 01:40:53;;;;;;;20.73;8.85;;;;;;;-2.68;75.31;102977.84;4987195;28;20112;-78
2023/02/09 01:43:18;;;;;;;26.65;10.13;;;;;;;-2.61;75.21;102969.31;4979362;28;20033;-80
2023/02/09 01:45:44;;;;;;;26.55;9.60;;;;;;;-2.71;75.48;102979.59;4988272;28;20037;-80
2023/02/09 01:48:11;;;;;;;22.95;8.93;;;;;;;-2.81;76.02;102973.78;5003672;28;20026;-77
2023/02/09 01:50:42;;;;;;;25.10;9.20;;;;;;;-2.79;75.98;102975.47;4990838;28;20038;-77
2023/02/09 01:53:08;;;;;;;21.30;8.95;;;;;;;-2.77;76.11;102968.66;5004308;28;20036;-77
2023/02/09 01:55:46;;;;;;;23.98;9.02;;;;;;;-2.88;76.56;102977.22;4997608;28;20065;-78
2023/02/09 01:58:16;;;;;;;22.45;9.27;;;;;;;-2.99;77.52;102979.91;5003160;28;20026;-78
2023/02/09 02:00:42;;;;;;;20.85;8.60;;;;;;;-3.08;78.09;102970.66;4994675;28;20041;-77
2023/02/09 02:03:12;;;;;;;21.98;9.07;;;;;;;-3.13;78.53;102969.84;5005227;28;20033;-78
2023/02/09 02:05:42;;;;;;;23.85;9.30;;;;;;;-3.17;78.74;102974.13;4993114;28;20033;-77
2023/02/09 02:08:21;;;;;;;23.67;9.43;;;;;;;-3.20;78.93;102971.63;4992596;28;20034;-78
2023/02/09 02:10:47;;;;;;;26.70;9.70;;;;;;;-3.24;79.21;102969.97;5003047;28;20145;-77
2023/02/09 02:13:13;;;;;;;21.35;9.00;;;;;;;-3.28;79.88;102964.91;4979574;28;20042;-78
2023/02/09 02:15:54;;;;;;;21.42;9.00;;;;;;;-3.34;80.35;102966.66;4994746;28;20038;-79
2023/02/09 02:18:30;;;;;;;23.60;9.88;;;;;;;-3.37;80.43;102973.44;5005686;28;20033;-78
2023/02/09 02:21:17;;;;;;;21.95;9.65;;;;;;;-3.41;80.70;102976.88;4990576;28;20041;-77
2023/02/09 02:24:19;;;;;;;22.75;9.63;;;;;;;-3.45;81.02;102963.38;5024189;28;23170;-77
2023/02/09 02:26:52;;;;;;;19.35;9.23;;;;;;;-3.47;81.26;102974.38;4995646;28;20034;-78
2023/02/09 02:29:39;;;;;;;22.45;9.57;;;;;;;-3.52;81.68;102977.81;4979551;28;20050;-77
2023/02/09 02:32:14;;;;;;;25.30;10.10;;;;;;;-3.55;81.90;102970.22;5009562;28;20564;-78
2023/02/09 02:34:57;;;;;;;25.90;9.85;;;;;;;-3.58;81.86;102982.06;5011998;28;20486;-78
2023/02/09 02:37:40;;;;;;;19.93;9.13;;;;;;;-3.62;82.34;102981.25;5008294;28;20129;-78
2023/02/09 02:40:19;;;;;;;23.90;9.55;;;;;;;-3.65;82.55;102990.59;5020294;28;20034;-81
2023/02/09 02:43:10;;;;;;;23.05;9.25;;;;;;;-3.65;82.53;102983.00;4992310;28;20065;-77
2023/02/09 02:46:13;;;;;;;23.42;10.13;;;;;;;-3.65;82.30;102983.00;5010497;28;20041;-80
2023/02/09 02:48:49;;;;;;;25.73;10.27;;;;;;;-3.68;82.33;102986.38;4991142;28;20038;-78
2023/02/09 02:51:28;;;;;;;24.40;10.43;;;;;;;-3.67;82.84;102980.47;4983372;28;20066;-78
2023/02/09 02:54:01;;;;;;;26.63;10.93;;;;;;;-3.62;82.65;102972.81;5009846;28;20192;-78
2023/02/09 02:56:33;;;;;;;27.95;10.18;;;;;;;-3.41;82.22;102967.59;4991589;28;20058;-78
2023/02/09 02:59:01;;;;;;;27.63;10.88;;;;;;;-3.42;81.64;102975.19;4989610;28;20029;-80
2023/02/09 03:01:33;;;;;;;23.05;9.82;;;;;;;-3.54;82.10;102971.06;4994209;28;20057;-78
2023/02/09 03:04:01;;;;;;;26.92;10.48;;;;;;;-3.58;82.47;102966.84;4977327;28;20092;-77
2023/02/09 03:06:26;;;;;;;28.27;11.25;;;;;;;-3.60;82.81;102969.44;4992455;28;20034;-78
2023/02/09 03:08:54;;;;;;;29.05;11.95;;;;;;;-3.57;82.94;102963.47;4994116;28;20041;-78
2023/02/09 03:11:23;;;;;;;22.65;10.70;;;;;;;-3.58;83.28;102959.25;4991497;28;20049;-78
2023/02/09 03:14:07;;;;;;;27.30;11.90;;;;;;;-3.50;83.06;102964.25;4977308;28;20659;-79
2023/02/09 03:16:44;;;;;;;31.88;12.57;;;;;;;-3.46;83.02;102965.94;4990980;28;20050;-78
2023/02/09 03:19:28;;;;;;;30.23;11.65;;;;;;;-3.45;83.08;102970.97;4994079;28;20033;-79
2023/02/09 03:22:16;;;;;;;36.47;13.30;;;;;;;-3.47;83.08;102962.53;4988561;28;20046;-78
2023/02/09 03:24:50;;;;;;;31.90;13.82;;;;;;;-3.39;82.99;102963.34;4993129;28;20066;-78
2023/02/09 03:27:20;;;;;;;35.30;13.93;;;;;;;-3.39;82.85;102963.34;4995405;28;20092;-78
2023/02/09 03:29:49;;;;;;;31.60;14.68;;;;;;;-3.46;83.02;102963.41;4995328;28;20034;-78
2023/02/09 03:32:16;;;;;;;39.90;14.00;;;;;;;-3.45;83.09;102957.47;4989611;28;20117;-78
2023/02/09 03:34:43;;;;;;;36.70;14.07;;;;;;;-3.46;83.24;102958.31;4992536;28;20033;-78
2023/02/09 03:37:08;;;;;;;34.55;14.30;;;;;;;-3.41;83.30;102962.50;4993341;28;20053;-80
2023/02/09 03:39:34;;;;;;;36.22;14.23;;;;;;;-3.40;83.47;102958.25;4982618;28;20096;-78
2023/02/09 03:41:59;;;;;;;33.08;13.80;;;;;;;-3.44;83.51;102954.06;4982338;28;20044;-79
2023/02/09 03:44:25;;;;;;;32.65;15.18;;;;;;;-3.42;83.69;102949.81;4977703;28;20044;-78
2023/02/09 03:46:56;;;;;;;28.15;13.52;;;;;;;-3.48;83.53;102955.78;4981047;28;20450;-79
2023/02/09 03:49:23;;;;;;;38.30;16.40;;;;;;;-3.44;83.41;102952.38;4992933;28;20486;-80
2023/02/09 03:51:49;;;;;;;37.72;14.57;;;;;;;-3.45;83.60;102944.78;4993718;28;20498;-78
2023/02/09 03:54:14;;;;;;;29.48;14.07;;;;;;;-3.37;83.68;102943.88;4998647;28;20040;-78
2023/02/09 03:56:40;;;;;;;32.13;13.70;;;;;;;-3.49;83.73;102943.13;4992310;28;20038;-78
2023/02/09 03:59:05;;;;;;;37.67;13.82;;;;;;;-3.46;83.77;102943.09;4991083;28;20704;-78
2023/02/09 04:01:34;;;;;;;32.42;13.88;;;;;;;-3.47;83.71;102939.69;4991183;28;20065;-78
2023/02/09 04:04:00;;;;;;;42.90;13.20;;;;;;;-3.55;84.07;102927.09;4977749;28;20088;-80
2023/02/09 04:06:28;;;;;;;36.17;13.63;;;;;;;-3.48;83.80;102924.50;4993930;28;20037;-80
2023/02/09 04:08:53;;;;;;;32.17;13.02;;;;;;;-3.45;83.55;102927.84;4992029;28;20061;-79
2023/02/09 04:11:18;;;;;;;39.03;14.38;;;;;;;-3.44;83.58;102929.53;4996047;28;20427;-79
2023/02/09 04:13:44;;;;;;;32.03;13.55;;;;;;;-3.46;83.48;102925.34;5008656;28;20029;-78
2023/02/09 04:16:09;;;;;;;34.65;13.70;;;;;;;-3.47;83.87;102921.13;4972851;28;20038;-79
2023/02/09 04:18:35;;;;;;;36.55;13.45;;;;;;;-3.43;83.54;102922.75;5011881;28;20025;-79
2023/02/09 04:21:00;;;;;;;31.45;13.75;;;;;;;-3.49;83.59;102928.72;4993404;28;20053;-78
2023/02/09 04:23:26;;;;;;;34.80;13.35;;;;;;;-3.48;83.55;102910.13;4993154;28;20038;-79
2023/02/09 04:25:51;;;;;;;32.28;13.23;;;;;;;-3.46;83.84;102913.50;5024398;28;20088;-79
2023/02/09 04:28:17;;;;;;;48.50;18.10;;;;;;;-3.50;83.07;102913.50;4994717;28;20092;-78
2023/02/09 04:30:42;;;;;;;38.75;14.60;;;;;;;-3.49;83.20;102915.22;5002473;28;20041;-78
2023/02/09 04:33:09;;;;;;;37.03;13.63;;;;;;;-3.44;83.29;102909.25;4972868;28;20041;-79
2023/02/09 04:35:36;;;;;;;33.58;14.07;;;;;;;-3.46;83.19;102905.06;4991005;28;20065;-79
2023/02/09 04:38:01;;;;;;;33.13;13.63;;;;;;;-3.54;83.09;102900.88;4988099;28;20037;-79
2023/02/09 04:40:27;;;;;;;40.90;16.95;;;;;;;-3.53;83.28;102896.63;4991253;28;20487;-78
2023/02/09 04:42:52;;;;;;;35.40;15.63;;;;;;;-3.56;83.29;102886.50;4977229;28;20064;-80
2023/02/09 04:45:18;;;;;;;40.63;14.20;;;;;;;-3.55;83.55;102898.34;4993259;28;20057;-79
2023/02/09 04:47:43;;;;;;;40.92;14.45;;;;;;;-3.52;83.42;102894.09;4990925;28;20030;-79
2023/02/09 04:50:09;;;;;;;35.35;13.43;;;;;;;-3.46;82.70;102888.13;4972930;28;20041;-79
2023/02/09 04:52:34;;;;;;;38.10;13.07;;;;;;;-3.47;82.84;102894.03;4974394;28;20491;-79
2023/02/09 04:55:00;;;;;;;34.38;13.35;;;;;;;-3.36;82.63;102896.47;4977941;28;20026;-80
2023/02/09 05:00:10;;;;;;;36.95;13.07;;;;;;;-3.37;82.14;102893.13;4991012;28;20038;-79
2023/02/09 05:02:36;;;;;;;32.70;12.88;;;;;;;-3.38;81.93;102893.13;5008166;28;20056;-79
2023/02/09 05:05:02;;;;;;;28.50;11.77;;;;;;;-3.41;81.84;102905.81;4972855;28;20033;-79
2023/02/09 05:07:27;;;;;;;29.60;11.57;;;;;;;-3.43;82.61;102905.84;4972472;28;20399;-79
2023/02/09 05:09:53;;;;;;;28.00;12.40;;;;;;;-3.43;82.43;102907.53;4992241;28;20057;-79
2023/02/09 05:12:18;;;;;;;29.95;12.43;;;;;;;-3.60;83.03;102911.09;4991883;28;20049;-79
2023/02/09 05:14:44;;;;;;;25.10;10.98;;;;;;;-3.69;83.55;102908.63;4993736;28;20037;-79
2023/02/09 05:17:09;;;;;;;26.10;11.70;;;;;;;-3.77;84.30;102910.34;4995087;28;20041;-79
2023/02/09 05:19:35;;;;;;;32.75;12.05;;;;;;;-3.80;84.73;102905.34;4979344;28;20030;-79
2023/02/09 05:22:01;;;;;;;31.55;13.15;;;;;;;-3.87;84.96;102891.00;4989572;28;20048;-78
2023/02/09 05:24:26;;;;;;;37.47;12.73;;;;;;;-3.84;84.93;102904.50;4971600;28;20040;-78
2023/02/09 05:26:52;;;;;;;33.53;11.57;;;;;;;-3.83;85.26;102901.09;4986754;28;20783;-79
2023/02/09 05:29:17;;;;;;;33.95;12.00;;;;;;;-3.81;84.91;102898.56;4990234;28;20041;-78
2023/02/09 05:31:42;;;;;;;30.23;12.75;;;;;;;-3.94;85.53;102897.81;4975915;28;20469;-79
2023/02/09 05:34:08;;;;;;;35.65;13.18;;;;;;;-3.89;86.05;102896.09;4983945;28;20033;-79
2023/02/09 05:36:33;;;;;;;34.05;13.20;;;;;;;-3.86;86.14;102885.06;4972549;28;20557;-78
2023/02/09 05:38:59;;;;;;;35.92;12.98;;;;;;;-3.91;86.46;102870.75;4989579;28;20118;-81
2023/02/09 05:44:08;;;;;;;30.52;12.32;;;;;;;-4.06;86.76;102872.56;4989855;28;20076;-79
2023/02/09 05:46:34;;;;;;;34.80;13.38;;;;;;;-4.05;87.64;102874.22;4976547;28;20512;-79
2023/02/09 05:48:59;;;;;;;31.45;13.70;;;;;;;-3.91;87.56;102874.97;4997389;28;20317;-80
2023/02/09 05:51:25;;;;;;;33.83;13.48;;;;;;;-3.89;87.46;102874.97;4993390;28;20045;-79
2023/02/09 05:53:53;;;;;;;33.83;14.27;;;;;;;-3.91;88.27;102865.69;4981795;28;20034;-79
2023/02/09 05:56:19;;;;;;;35.75;14.70;;;;;;;-3.93;88.14;102874.16;4976344;28;20819;-79
2023/02/09 05:58:45;;;;;;;46.00;15.57;;;;;;;-3.98;88.24;102876.72;4992358;28;20053;-78
2023/02/09 06:01:10;;;;;;;37.15;14.02;;;;;;;-4.06;88.66;102877.63;4991514;28;20414;-78
2023/02/09 06:03:36;;;;;;;36.88;16.17;;;;;;;-4.14;89.09;102890.38;5025199;28;20046;-79
2023/02/09 06:06:01;;;;;;;34.03;13.95;;;;;;;-4.08;89.76;102892.84;4988986;28;20042;-79
2023/02/09 06:08:27;;;;;;;39.78;13.70;;;;;;;-4.17;89.48;102895.44;4993496;28;20030;-79
2023/02/09 06:10:52;;;;;;;34.15;14.50;;;;;;;-4.17;89.93;102908.09;4993729;28;20046;-78
2023/02/09 06:13:22;;;;;;;39.67;14.93;;;;;;;-4.17;89.69;102901.34;4991600;28;20406;-79
2023/02/09 06:15:47;;;;;;;33.45;13.98;;;;;;;-4.14;89.81;102901.34;4985617;28;20072;-79
2023/02/09 06:18:13;;;;;;;34.47;14.75;;;;;;;-4.06;89.57;102903.81;4978089;28;20037;-79
2023/02/09 06:20:38;;;;;;;35.67;14.20;;;;;;;-4.14;89.60;102896.25;4969651;28;20400;-79
2023/02/09 06:23:03;;;;;;;36.22;15.52;;;;;;;-4.07;89.73;102904.66;4991447;28;20457;-80
2023/02/09 06:25:29;;;;;;;38.20;14.93;;;;;;;-4.14;89.76;102900.50;4977111;28;20057;-79
2023/02/09 06:27:54;;;;;;;41.83;15.15;;;;;;;-4.02;89.89;102894.50;4977618;28;20116;-79
2023/02/09 06:30:20;;;;;;;41.72;15.88;;;;;;;-4.10;89.68;102897.09;4991858;28;20033;-79
2023/02/09 06:32:45;;;;;;;42.00;16.02;;;;;;;-4.08;90.25;102890.31;4976147;28;20105;-79
2023/02/09 06:35:11;;;;;;;37.45;15.00;;;;;;;-4.11;90.35;102888.66;4991066;28;20061;-79
2023/02/09 06:37:36;;;;;;;39.17;15.65;;;;;;;-4.19;91.09;102897.16;4989575;28;20046;-80
2023/02/09 06:40:02;;;;;;;43.67;16.48;;;;;;;-4.28;91.70;102905.63;4990460;28;20399;-80
2023/02/09 06:42:42;;;;;;;46.95;17.17;;;;;;;-4.29;91.80;102911.56;4974473;28;20064;-79
2023/02/09 06:45:12;;;;;;;41.58;16.38;;;;;;;-4.23;92.14;102923.34;5005198;28;20061;-78
2023/02/09 06:47:44;;;;;;;45.13;17.88;;;;;;;-4.14;91.67;102915.72;4989110;28;20076;-79
2023/02/09 06:50:12;;;;;;;38.67;16.55;;;;;;;-4.20;91.34;102924.19;5004874;28;20034;-79
2023/02/09 06:52:37;;;;;;;45.13;16.48;;;;;;;-4.14;91.33;102920.78;4980832;28;20050;-79
2023/02/09 06:55:04;;;;;;;40.60;16.80;;;;;;;-4.12;90.64;102914.00;4997695;28;20030;-79
2023/02/09 06:57:30;;;;;;;46.47;17.23;;;;;;;-4.14;90.94;102921.59;4992596;28;20996;-79
2023/02/09 06:59:55;;;;;;;42.55;16.40;;;;;;;-4.08;90.66;102919.91;4993382;28;20030;-79
2023/02/09 07:02:21;;;;;;;63.65;22.40;;;;;;;-4.20;91.30;102930.91;5011754;28;20080;-79
2023/02/09 07:04:46;;;;;;;98.35;31.83;;;;;;;-4.22;91.63;102912.34;4993706;28;20042;-79
2023/02/09 07:07:12;;;;;;;87.88;33.72;;;;;;;-4.24;91.58;102922.50;4997727;28;20057;-80
2023/02/09 07:09:37;;;;;;;65.95;30.23;;;;;;;-4.16;91.33;102909.81;4994387;28;20042;-79
2023/02/09 07:12:03;;;;;;;57.20;25.55;;;;;;;-4.20;91.09;102915.72;4990660;28;20042;-78
2023/02/09 07:14:28;;;;;;;61.78;27.13;;;;;;;-4.18;91.69;102924.16;5011566;28;20030;-79
2023/02/09 07:16:54;;;;;;;59.38;27.35;;;;;;;-4.08;90.82;102935.94;4995762;28;20414;-79
2023/02/09 07:19:19;;;;;;;61.65;29.60;;;;;;;-4.02;91.21;102940.94;5001823;28;20045;-79
2023/02/09 07:21:45;;;;;;;43.63;16.45;;;;;;;-3.81;90.67;102937.44;4994435;28;20030;-79
2023/02/09 07:24:10;;;;;;;40.67;15.77;;;;;;;-3.88;90.41;102945.97;4993494;28;20858;-79
2023/02/09 07:26:35;;;;;;;39.10;15.77;;;;;;;-3.84;90.37;102934.94;5006134;28;20050;-79
2023/02/09 07:29:01;;;;;;;40.22;15.80;;;;;;;-3.78;90.37;102937.41;5013647;28;20029;-79
2023/02/09 07:31:27;;;;;;;41.50;17.10;;;;;;;-3.88;90.59;102928.22;5011365;28;20052;-79
2023/02/09 07:33:54;;;;;;;44.03;17.33;;;;;;;-3.81;90.29;102932.34;4993810;28;20054;-80
2023/02/09 07:36:20;;;;;;;40.03;17.48;;;;;;;-3.63;90.34;102938.16;4994844;28;20034;-78
2023/02/09 07:38:45;;;;;;;43.47;16.40;;;;;;;-3.63;89.98;102931.38;4997248;28;20029;-79
2023/02/09 07:41:15;;;;;;;38.22;15.50;;;;;;;-3.56;89.84;102942.31;4999308;28;20034;-79
2023/02/09 07:43:41;;;;;;;40.70;14.88;;;;;;;-3.62;89.47;102935.59;4992586;28;20038;-79
2023/02/09 07:46:07;;;;;;;48.40;16.83;;;;;;;-3.64;90.19;102939.84;4977951;28;20088;-80
2023/02/09 07:48:33;;;;;;;38.45;16.15;;;;;;;-3.54;89.60;102931.31;5021991;28;20044;-80
2023/02/09 07:50:59;;;;;;;47.80;15.60;;;;;;;-3.51;89.05;102930.44;4988642;28;20368;-79
2023/02/09 07:53:25;;;;;;;40.20;15.82;;;;;;;-3.40;89.13;102940.50;4995231;28;20041;-79
2023/02/09 07:55:51;;;;;;;39.13;15.52;;;;;;;-3.30;88.61;102928.56;4978306;28;20049;-80
2023/02/09 07:58:19;;;;;;;42.85;16.70;;;;;;;-3.25;87.75;102942.06;4977474;28;20026;-80
2023/02/09 08:00:45;;;;;;;42.63;16.88;;;;;;;-3.20;87.64;102943.69;5006794;28;20050;-80
2023/02/09 08:03:13;;;;;;;39.67;15.82;;;;;;;-3.10;86.94;102929.22;4994819;28;20029;-79
2023/02/09 08:05:47;;;;;;;47.25;17.48;;;;;;;-3.07;86.94;102938.50;4988874;28;20049;-81
2023/02/09 08:08:12;;;;;;;40.72;17.58;;;;;;;-3.06;86.15;102941.03;4999337;28;20026;-81
2023/02/09 08:10:39;;;;;;;40.95;16.35;;;;;;;-3.08;86.71;102946.97;4979133;28;20749;-81
2023/02/09 08:13:04;;;;;;;41.20;17.13;;;;;;;-2.99;86.56;102954.50;5014773;28;20482;-81
2023/02/09 08:15:41;;;;;;;37.30;16.13;;;;;;;-2.98;87.17;102948.56;4978323;28;20054;-81
2023/02/09 08:18:15;;;;;;;46.70;17.30;;;;;;;-2.94;87.09;102958.69;4991728;28;20092;-81
2023/02/09 08:20:42;;;;;;;41.22;17.00;;;;;;;-2.88;87.23;102964.53;4972856;28;20723;-80
2023/02/09 08:23:14;;;;;;;42.42;16.58;;;;;;;-2.82;86.95;102982.25;4977723;28;20025;-80
2023/02/09 08:25:39;;;;;;;47.45;17.55;;;;;;;-2.74;86.26;102988.09;4990910;28;20057;-80
2023/02/09 08:28:05;;;;;;;38.00;15.05;;;;;;;-2.66;85.33;102970.22;4975613;28;20390;-81
2023/02/09 08:30:33;;;;;;;46.97;16.58;;;;;;;-2.41;83.79;102975.84;4976370;28;20045;-80
2023/02/09 08:32:58;;;;;;;35.67;15.90;;;;;;;-2.30;82.34;102974.00;4988527;28;20038;-81
2023/02/09 08:35:24;;;;;;;46.85;16.60;;;;;;;-2.19;82.32;102981.50;4988707;28;20034;-80
2023/02/09 08:37:49;;;;;;;41.78;16.35;;;;;;;-1.88;81.41;102993.81;4975475;28;20505;-80
2023/02/09 08:40:15;;;;;;;49.78;16.67;;;;;;;-1.57;80.02;102984.00;5012167;28;20038;-80
2023/02/09 08:42:40;;;;;;;42.97;15.98;;;;;;;-1.26;78.14;102980.94;4990413;28;20033;-81
2023/02/09 08:45:06;;;;;;;39.50;15.23;;;;;;;-1.07;76.27;102987.44;4993389;28;20041;-80
2023/02/09 08:47:32;;;;;;;42.72;16.35;;;;;;;-0.93;75.43;102984.63;4992654;28;20057;-80
2023/02/09 08:49:58;;;;;;;41.25;16.02;;;;;;;-1.09;75.64;102993.38;4992303;28;20033;-81
2023/02/09 08:52:24;;;;;;;42.13;15.73;;;;;;;-0.82;75.49;102982.72;5006381;28;20042;-80
2023/02/09 08:54:49;;;;;;;47.47;16.10;;;;;;;-0.52;73.97;102985.53;4992960;28;20060;-80
2023/02/09 08:57:15;;;;;;;39.70;15.10;;;;;;;-0.32;73.77;102987.69;4978805;28;20038;-80
2023/02/09 08:59:40;;;;;;;36.70;15.25;;;;;;;-0.54;73.80;102997.47;5007646;28;20056;-82
2023/02/09 09:02:06;;;;;;;41.47;16.05;;;;;;;-0.58;74.24;102990.78;4990985;28;20037;-80
2023/02/09 09:04:31;;;;;;;47.20;16.65;;;;;;;-0.52;73.92;102993.19;4978421;28;20049;-80
2023/02/09 09:06:57;;;;;;;44.25;16.83;;;;;;;-0.52;73.35;103005.09;4996704;28;20034;-80
2023/02/09 09:09:22;;;;;;;34.85;14.55;;;;;;;-0.30;72.38;102996.16;4996006;28;20038;-81
2023/02/09 09:11:48;;;;;;;34.63;14.88;;;;;;;-0.20;71.92;103002.72;5006472;28;20046;-81
2023/02/09 09:14:13;;;;;;;40.35;15.15;;;;;;;0.02;71.94;102996.31;4973734;28;20038;-80
2023/02/09 09:16:39;;;;;;;36.40;14.55;;;;;;;0.13;71.99;103002.00;4989627;28;20118;-80
2023/02/09 09:19:04;;;;;;;48.90;14.52;;;;;;;0.17;70.72;103007.03;4995018;28;20497;-80
2023/02/09 09:21:34;;;;;;;39.08;15.15;;;;;;;0.27;71.02;103006.81;4990916;28;20092;-81
2023/02/09 09:23:59;;;;;;;38.15;14.80;;;;;;;0.33;70.51;103004.94;5023825;28;20395;-81
2023/02/09 09:26:24;;;;;;;37.00;14.63;;;;;;;0.28;71.17;102994.00;5010116;28;20031;-81
2023/02/09 09:28:50;;;;;;;40.50;14.52;;;;;;;0.34;71.01;102999.00;4991240;28;20765;-80
2023/02/09 09:31:16;;;;;;;37.10;14.65;;;;;;;0.15;71.04;102995.16;4990189;28;20050;-80
2023/02/09 09:33:44;;;;;;;39.20;14.82;;;;;;;-0.03;71.46;102997.25;4990771;28;20141;-79
2023/02/09 09:36:11;;;;;;;37.40;14.73;;;;;;;-0.14;71.98;102995.81;4990366;28;20561;-80
2023/02/09 09:38:37;;;;;;;34.92;14.25;;;;;;;-0.05;72.75;102998.19;4990261;28;20599;-80
2023/02/09 09:41:05;;;;;;;38.47;14.77;;;;;;;-0.08;72.60;102998.22;4971968;28;20038;-78
2023/02/09 09:43:39;;;;;;;39.78;14.07;;;;;;;-0.07;73.80;102999.91;4993192;28;20100;-78
2023/02/09 09:46:06;;;;;;;32.25;13.23;;;;;;;0.02;73.86;102991.22;4997528;28;20035;-80
2023/02/09 09:48:53;;;;;;;33.47;14.88;;;;;;;0.17;73.03;102996.81;4989693;28;20037;-77
2023/02/09 09:51:41;;;;;;;41.63;15.02;;;;;;;0.25;72.01;102978.78;5004491;28;20045;-78
2023/02/09 09:54:18;;;;;;;43.90;14.50;;;;;;;0.28;71.99;102970.19;5021756;28;20030;-77
2023/02/09 09:56:43;;;;;;;35.40;13.73;;;;;;;0.32;72.76;102951.38;5006975;28;20053;-78
2023/02/09 09:59:22;;;;;;;36.15;13.88;;;;;;;0.33;71.63;102951.34;4991231;28;20034;-77
2023/02/09 10:01:51;;;;;;;29.67;13.02;;;;;;;0.45;71.63;102940.00;4988836;28;20486;-77
2023/02/09 10:04:18;;;;;;;33.80;14.25;;;;;;;0.47;70.73;102939.97;4991942;28;20475;-78
2023/02/09 10:06:45;;;;;;;36.90;13.02;;;;;;;0.53;71.30;102948.31;5006328;28;20053;-77
2023/02/09 10:09:27;;;;;;;36.88;14.45;;;;;;;0.58;70.92;102951.59;4989698;28;20034;-78
2023/02/09 10:12:17;;;;;;;36.22;13.40;;;;;;;0.58;70.49;102950.75;4988261;28;20045;-76
2023/02/09 10:14:43;;;;;;;30.52;12.98;;;;;;;0.58;70.97;102959.28;5005064;28;20470;-76
2023/02/09 10:17:09;;;;;;;33.65;13.70;;;;;;;0.75;69.22;102965.66;4989922;28;20040;-76
2023/02/09 10:20:00;;;;;;;33.28;13.65;;;;;;;0.72;69.93;102968.28;5004899;28;20486;-77
2023/02/09 10:22:25;;;;;;;38.95;12.98;;;;;;;0.78;69.30;102965.56;5004039;28;20041;-76
2023/02/09 10:24:51;;;;;;;35.97;13.35;;;;;;;0.79;68.22;102974.91;5012697;28;20025;-77
2023/02/09 10:27:20;;;;;;;30.85;12.15;;;;;;;0.91;67.70;102973.75;4993225;28;20057;-77
2023/02/09 10:29:45;;;;;;;28.90;12.93;;;;;;;0.99;68.36;102973.56;4995288;28;20038;-77
2023/02/09 10:32:22;;;;;;;36.05;12.07;;;;;;;1.01;67.22;102974.34;4974589;28;20049;-77
2023/02/09 10:34:50;;;;;;;38.13;12.93;;;;;;;1.06;66.79;102983.56;4997716;28;20454;-76
2023/02/09 10:37:20;;;;;;;34.42;12.27;;;;;;;1.11;67.40;102970.66;5008612;28;20041;-79
2023/02/09 10:39:57;;;;;;;30.25;12.05;;;;;;;1.29;65.29;102966.78;4996518;28;20038;-77
2023/02/09 10:42:28;;;;;;;28.17;12.02;;;;;;;1.42;64.03;102955.31;4985457;28;20092;-77
2023/02/09 10:44:55;;;;;;;36.80;11.27;;;;;;;1.36;64.79;102966.56;4993014;28;20037;-77
2023/02/09 10:47:26;;;;;;;24.52;12.38;;;;;;;1.54;63.28;102974.59;4992229;28;20095;-78
2023/02/09 10:50:12;;;;;;;27.42;10.95;;;;;;;1.44;63.62;102968.91;4992959;28;20076;-77
2023/02/09 10:52:43;;;;;;;32.85;12.38;;;;;;;1.56;63.77;102977.94;5009204;28;20045;-79
2023/02/09 10:55:20;;;;;;;31.10;10.55;;;;;;;1.65;61.72;102985.34;5001588;28;20034;-77
2023/02/09 10:57:47;;;;;;;28.63;12.30;;;;;;;1.68;60.57;102967.34;4992208;28;20037;-77
2023/02/09 11:00:15;;;;;;;28.95;10.88;;;;;;;1.70;62.79;102955.34;4996907;28;20029;-77
2023/02/09 11:02:49;;;;;;;29.48;11.57;;;;;;;1.85;62.66;102953.22;4972528;28;20038;-77
2023/02/09 11:05:20;;;;;;;30.10;11.40;;;;;;;1.80;63.05;102967.88;4990258;28;20117;-76
2023/02/09 11:07:58;;;;;;;30.00;10.70;;;;;;;1.79;61.63;102958.50;5010515;28;20522;-78
2023/02/09 11:10:26;;;;;;;23.58;10.88;;;;;;;1.87;61.14;102962.53;4993248;28;20037;-78
2023/02/09 11:12:51;;;;;;;30.60;11.07;;;;;;;1.91;61.33;102976.06;4992035;28;20590;-77
2023/02/09 11:15:24;;;;;;;23.60;10.75;;;;;;;2.06;61.16;102973.03;4995487;28;20034;-77
2023/02/09 11:18:03;;;;;;;27.10;11.05;;;;;;;2.03;61.20;102962.88;5024524;28;20046;-79
2023/02/09 11:20:35;;;;;;;30.10;10.07;;;;;;;1.93;61.81;102956.38;5009083;28;20394;-80
2023/02/09 11:23:38;;;;;;;29.02;11.65;;;;;;;2.00;62.41;102975.78;5009118;28;20735;-77
2023/02/09 11:26:19;;;;;;;32.70;11.63;;;;;;;1.96;61.99;102979.34;4992223;28;20064;-77